createdAt,value
2022-12-16T00:00:14.888Z,8.73
2022-12-16T00:02:41.924Z,9.00
2022-12-16T00:05:08.854Z,8.55
2022-12-16T00:07:35.496Z,8.87
2022-12-16T00:10:02.209Z,7.75
2022-12-16T00:12:28.879Z,7.85
2022-12-16T00:14:55.481Z,8.13
2022-12-16T00:17:22.289Z,8.18
2022-12-16T00:19:48.882Z,8.32
2022-12-16T00:22:15.570Z,8.20
2022-12-16T00:24:42.129Z,9.33
2022-12-16T00:27:08.744Z,7.43
2022-12-16T00:29:35.646Z,7.37
2022-12-16T00:32:02.946Z,7.20
2022-12-16T00:34:29.676Z,8.17
2022-12-16T00:36:56.385Z,7.90
2022-12-16T00:39:23.076Z,6.80
2022-12-16T00:41:50.912Z,7.67
2022-12-16T00:44:18.550Z,6.87
2022-12-16T00:46:45.174Z,7.73
2022-12-16T00:49:11.834Z,7.73
2022-12-16T00:51:38.613Z,7.23
2022-12-16T00:54:05.349Z,7.20
2022-12-16T00:56:31.920Z,6.70
2022-12-16T00:58:58.545Z,6.60
2022-12-16T01:01:25.369Z,6.07
2022-12-16T01:03:52.329Z,7.67
2022-12-16T01:06:19.061Z,6.27
2022-12-16T01:08:48.734Z,5.97
2022-12-16T01:11:17.112Z,6.63
2022-12-16T01:13:44.069Z,6.77
2022-12-16T01:16:10.735Z,7.23
2022-12-16T01:18:37.778Z,6.53
2022-12-16T01:21:05.062Z,6.83
2022-12-16T01:23:32.370Z,6.43
2022-12-16T01:26:00.136Z,6.03
2022-12-16T01:28:30.109Z,5.97
2022-12-16T01:30:58.113Z,5.83
2022-12-16T01:33:24.657Z,4.90
2022-12-16T01:35:57.962Z,5.37
2022-12-16T01:38:24.555Z,4.93
2022-12-16T01:40:51.903Z,5.67
2022-12-16T01:43:19.874Z,4.87
2022-12-16T01:45:46.462Z,4.37
2022-12-16T01:48:27.723Z,4.97
2022-12-16T01:50:58.758Z,4.27
2022-12-16T01:53:25.466Z,4.10
2022-12-16T01:55:53.084Z,3.67
2022-12-16T01:58:21.632Z,4.00
2022-12-16T02:00:48.760Z,3.70
2022-12-16T02:03:16.138Z,4.30
2022-12-16T02:05:43.458Z,4.70
2022-12-16T02:08:10.154Z,4.73
2022-12-16T02:13:24.755Z,4.13
2022-12-16T02:16:13.874Z,4.70
2022-12-16T02:18:52.437Z,4.50
2022-12-16T02:21:28.076Z,4.30
2022-12-16T02:24:00.991Z,4.43
2022-12-16T02:26:36.583Z,4.10
2022-12-16T02:29:22.084Z,4.57
2022-12-16T02:32:06.468Z,4.60
2022-12-16T02:34:46.988Z,4.23
2022-12-16T02:37:13.738Z,4.00
2022-12-16T02:39:43.654Z,4.03
2022-12-16T02:42:16.678Z,4.73
2022-12-16T02:47:36.331Z,4.23
2022-12-16T02:50:03.037Z,3.93
2022-12-16T02:52:30.847Z,3.90
2022-12-16T02:55:02.100Z,3.60
2022-12-16T02:57:44.137Z,3.92
2022-12-16T03:00:14.444Z,4.00
2022-12-16T03:02:50.886Z,3.50
2022-12-16T03:05:36.588Z,3.80
2022-12-16T03:08:05.704Z,3.70
2022-12-16T03:10:37.606Z,3.87
2022-12-16T03:13:05.669Z,4.07
2022-12-16T03:15:34.178Z,4.17
2022-12-16T03:20:45.701Z,4.03
2022-12-16T03:23:17.703Z,4.10
2022-12-16T03:25:45.866Z,4.23
2022-12-16T03:28:21.890Z,4.10
2022-12-16T03:30:51.820Z,4.33
2022-12-16T03:33:21.652Z,4.03
2022-12-16T03:36:08.260Z,3.93
2022-12-16T03:38:35.696Z,3.80
2022-12-16T03:41:03.051Z,4.20
2022-12-16T03:43:29.909Z,4.20
2022-12-16T03:45:59.748Z,3.90
2022-12-16T03:48:26.663Z,3.57
2022-12-16T03:53:34.335Z,3.80
2022-12-16T03:56:01.237Z,3.60
2022-12-16T03:58:27.883Z,3.67
2022-12-16T04:00:54.558Z,3.43
2022-12-16T04:03:26.678Z,3.27
2022-12-16T04:05:53.406Z,3.80
2022-12-16T04:11:19.433Z,3.67
2022-12-16T04:14:04.772Z,4.20
2022-12-16T04:16:50.121Z,3.87
2022-12-16T04:19:41.141Z,3.63
2022-12-16T04:22:33.599Z,4.13
2022-12-16T04:27:53.873Z,3.93
2022-12-16T04:30:21.300Z,3.73
2022-12-16T04:33:09.246Z,3.33
2022-12-16T04:35:54.751Z,3.40
2022-12-16T04:38:39.825Z,3.60
2022-12-16T04:44:24.596Z,4.07
2022-12-16T04:47:10.054Z,3.67
2022-12-16T04:49:55.295Z,3.57
2022-12-16T04:52:40.760Z,3.47
2022-12-16T04:55:26.637Z,3.40
2022-12-16T05:01:15.455Z,3.40
2022-12-16T05:04:00.667Z,3.80
2022-12-16T05:06:45.830Z,3.20
2022-12-16T05:09:31.380Z,3.60
2022-12-16T05:12:16.733Z,3.20
2022-12-16T05:15:02.256Z,3.47
2022-12-16T05:17:47.662Z,4.17
2022-12-16T05:20:49.827Z,4.00
2022-12-16T05:23:35.553Z,4.77
2022-12-16T05:26:20.959Z,4.60
2022-12-16T05:29:06.411Z,5.10
2022-12-16T05:34:50.940Z,3.30
2022-12-16T05:37:36.396Z,3.63
2022-12-16T05:40:21.966Z,3.10
2022-12-16T05:43:10.862Z,3.27
2022-12-16T05:45:59.546Z,5.40
2022-12-16T05:48:47.892Z,7.13
2022-12-16T05:51:33.389Z,6.73
2022-12-16T05:54:18.507Z,5.83
2022-12-16T05:57:03.764Z,4.57
2022-12-16T05:59:49.328Z,4.50
2022-12-16T06:02:34.858Z,3.37
2022-12-16T06:05:20.192Z,3.73
2022-12-16T06:08:11.767Z,3.67
2022-12-16T06:10:57.094Z,2.80
2022-12-16T06:13:42.456Z,3.40
2022-12-16T06:16:27.949Z,3.50
2022-12-16T06:19:13.203Z,5.20
2022-12-16T06:21:58.764Z,16.40
2022-12-16T06:24:44.520Z,16.17
2022-12-16T06:27:29.995Z,10.10
2022-12-16T06:30:15.385Z,8.37
2022-12-16T06:33:01.297Z,7.07
2022-12-16T06:35:46.732Z,7.03
2022-12-16T06:38:32.332Z,6.67
2022-12-16T06:41:17.903Z,6.07
2022-12-16T06:44:03.471Z,5.13
2022-12-16T06:46:48.747Z,4.53
2022-12-16T06:49:34.168Z,4.80
2022-12-16T06:52:19.727Z,4.83
2022-12-16T06:55:04.937Z,4.23
2022-12-16T06:57:50.321Z,5.00
2022-12-16T07:00:35.739Z,5.00
2022-12-16T07:03:21.080Z,5.10
2022-12-16T07:06:06.221Z,5.03
2022-12-16T07:08:51.459Z,4.53
2022-12-16T07:11:36.882Z,4.50
2022-12-16T07:14:22.320Z,4.80
2022-12-16T07:17:10.166Z,4.40
2022-12-16T07:20:18.956Z,4.63
2022-12-16T07:23:13.166Z,4.77
2022-12-16T07:26:01.892Z,4.50
2022-12-16T07:28:47.022Z,5.53
2022-12-16T07:31:32.644Z,4.77
2022-12-16T07:34:17.988Z,4.93
2022-12-16T07:37:03.260Z,5.23
2022-12-16T07:39:52.804Z,5.87
2022-12-16T07:42:40.148Z,6.60
2022-12-16T07:45:25.587Z,5.70
2022-12-16T07:48:11.028Z,5.13
2022-12-16T07:50:56.430Z,10.40
2022-12-16T07:53:41.815Z,8.47
2022-12-16T07:56:27.195Z,9.10
2022-12-16T07:59:12.611Z,5.60
2022-12-16T08:01:58.098Z,5.67
2022-12-16T08:04:43.199Z,5.73
2022-12-16T08:07:28.593Z,5.90
2022-12-16T08:10:14.162Z,5.97
2022-12-16T08:12:59.708Z,5.37
2022-12-16T08:15:45.197Z,5.80
2022-12-16T08:18:30.317Z,5.07
2022-12-16T08:21:15.990Z,6.07
2022-12-16T08:24:01.679Z,6.20
2022-12-16T08:26:46.937Z,6.50
2022-12-16T08:29:44.240Z,6.73
2022-12-16T08:32:30.832Z,7.57
2022-12-16T08:35:16.203Z,8.00
2022-12-16T08:38:01.615Z,8.93
2022-12-16T08:40:47.170Z,9.30
2022-12-16T08:43:32.893Z,10.23
2022-12-16T08:46:18.328Z,10.60
2022-12-16T08:49:03.501Z,11.13
2022-12-16T08:51:48.996Z,12.40
2022-12-16T08:54:34.232Z,10.13
2022-12-16T08:57:20.879Z,8.77
2022-12-16T09:00:06.275Z,9.20
2022-12-16T09:02:51.875Z,9.57
2022-12-16T09:05:38.072Z,10.43
2022-12-16T09:08:23.436Z,9.20
2022-12-16T09:11:08.911Z,7.73
2022-12-16T09:13:54.179Z,8.03
2022-12-16T09:16:40.108Z,8.63
2022-12-16T09:19:25.201Z,9.10
2022-12-16T09:22:10.713Z,9.30
2022-12-16T09:24:56.178Z,9.73
2022-12-16T09:27:41.428Z,9.97
2022-12-16T09:30:26.799Z,10.70
2022-12-16T09:33:12.105Z,11.93
2022-12-16T09:35:57.494Z,11.93
2022-12-16T09:38:42.558Z,13.00
2022-12-16T09:41:51.240Z,14.33
2022-12-16T09:44:39.851Z,16.33
2022-12-16T09:47:36.942Z,15.97
2022-12-16T09:50:23.316Z,24.17
2022-12-16T09:53:12.563Z,32.43
2022-12-16T09:55:59.019Z,22.43
2022-12-16T09:58:46.513Z,20.33
2022-12-16T10:01:32.496Z,19.50
2022-12-16T10:04:17.761Z,20.43
2022-12-16T10:07:06.392Z,24.50
2022-12-16T10:10:00.974Z,21.53
2022-12-16T10:12:55.572Z,25.17
2022-12-16T10:15:53.232Z,22.77
2022-12-16T10:18:50.437Z,22.57
2022-12-16T10:21:39.552Z,23.93
2022-12-16T10:24:36.763Z,23.97
2022-12-16T10:27:27.846Z,22.00
2022-12-16T10:30:13.550Z,21.80
2022-12-16T10:33:04.066Z,20.70
2022-12-16T10:35:52.480Z,21.10
2022-12-16T10:38:40.898Z,21.13
2022-12-16T10:41:37.925Z,24.97
2022-12-16T10:44:25.154Z,24.80
2022-12-16T10:47:10.507Z,24.60
2022-12-16T10:49:56.196Z,23.93
2022-12-16T10:52:41.734Z,20.63
2022-12-16T10:55:34.180Z,20.27
2022-12-16T10:58:35.808Z,21.40
2022-12-16T11:01:38.698Z,21.60
2022-12-16T11:04:45.986Z,22.50
2022-12-16T11:07:49.947Z,23.83
2022-12-16T11:10:45.261Z,26.83
2022-12-16T11:13:51.110Z,26.50
2022-12-16T11:16:38.547Z,27.60
2022-12-16T11:19:36.986Z,28.90
2022-12-16T11:22:26.480Z,27.90
2022-12-16T11:25:41.268Z,28.73
2022-12-16T11:28:38.427Z,26.43
2022-12-16T11:31:25.727Z,27.10
2022-12-16T11:34:11.909Z,28.40
2022-12-16T11:36:57.797Z,29.23
2022-12-16T11:39:45.110Z,29.73
2022-12-16T11:42:38.553Z,28.27
2022-12-16T11:45:25.038Z,30.10
2022-12-16T11:48:28.796Z,29.50
2022-12-16T11:51:15.576Z,29.97
2022-12-16T11:54:09.546Z,30.40
2022-12-16T11:57:00.487Z,30.67
2022-12-16T11:59:45.816Z,30.50
2022-12-16T12:02:39.751Z,30.90
2022-12-16T12:05:25.474Z,33.50
2022-12-16T12:08:10.775Z,31.37
2022-12-16T12:11:04.277Z,32.87
2022-12-16T12:13:53.059Z,32.13
2022-12-16T12:16:57.721Z,33.90
2022-12-16T12:19:50.806Z,33.67
2022-12-16T12:23:01.638Z,34.17
2022-12-16T12:25:52.412Z,35.47
2022-12-16T12:29:00.768Z,34.43
2022-12-16T12:31:52.499Z,35.13
2022-12-16T12:34:37.865Z,36.30
2022-12-16T12:37:27.272Z,35.17
2022-12-16T12:40:22.278Z,36.30
2022-12-16T12:43:12.904Z,34.43
2022-12-16T12:46:07.578Z,36.67
2022-12-16T12:49:00.010Z,36.97
2022-12-16T12:51:49.230Z,35.57
2022-12-16T12:54:44.529Z,38.10
2022-12-16T12:57:31.903Z,34.50
2022-12-16T13:00:22.120Z,34.93
2022-12-16T13:03:07.240Z,36.27
2022-12-16T13:05:53.371Z,36.03
2022-12-16T13:08:51.061Z,33.97
2022-12-16T13:11:56.810Z,35.30
2022-12-16T13:14:51.596Z,34.83
2022-12-16T13:17:40.519Z,34.60
2022-12-16T13:20:44.594Z,37.27
2022-12-16T13:23:56.376Z,35.37
2022-12-16T13:26:45.477Z,36.93
2022-12-16T13:29:37.021Z,35.17
2022-12-16T13:32:32.912Z,33.73
2022-12-16T13:35:18.379Z,34.10
2022-12-16T13:38:30.114Z,36.90
2022-12-16T13:41:19.139Z,35.03
2022-12-16T13:44:07.793Z,35.97
2022-12-16T13:47:06.958Z,35.10
2022-12-16T13:49:55.393Z,35.53
2022-12-16T13:52:44.776Z,33.60
2022-12-16T13:55:38.355Z,34.20
2022-12-16T13:58:25.514Z,35.20
2022-12-16T14:01:16.691Z,36.23
2022-12-16T14:04:07.022Z,35.50
2022-12-16T14:06:53.410Z,33.80
2022-12-16T14:09:50.941Z,35.40
2022-12-16T14:12:49.250Z,39.70
2022-12-16T14:15:42.639Z,37.13
2022-12-16T14:18:50.988Z,37.00
2022-12-16T14:21:39.240Z,37.07
2022-12-16T14:24:35.791Z,36.73
2022-12-16T14:27:24.966Z,37.47
2022-12-16T14:30:10.531Z,37.73
2022-12-16T14:32:55.802Z,36.87
2022-12-16T14:35:42.863Z,40.03
2022-12-16T14:38:36.744Z,38.53
2022-12-16T14:41:22.177Z,40.43
2022-12-16T14:44:07.483Z,40.50
2022-12-16T14:46:52.891Z,41.13
2022-12-16T14:49:42.494Z,41.30
2022-12-16T14:52:34.382Z,40.23
2022-12-16T14:55:19.695Z,38.53
2022-12-16T14:58:20.061Z,41.73
2022-12-16T15:01:08.522Z,41.50
2022-12-16T15:03:58.976Z,41.63
2022-12-16T15:06:46.251Z,40.53
2022-12-16T15:09:39.113Z,41.10
2022-12-16T15:12:25.633Z,40.53
2022-12-16T15:15:12.651Z,39.93
2022-12-16T15:18:04.224Z,41.23
2022-12-16T15:20:51.099Z,40.57
2022-12-16T15:23:39.463Z,41.53
2022-12-16T15:26:25.610Z,38.70
2022-12-16T15:29:10.943Z,41.90
2022-12-16T15:32:02.961Z,41.23
2022-12-16T15:34:51.081Z,41.97
2022-12-16T15:37:38.108Z,41.87
2022-12-16T15:40:24.029Z,41.93
2022-12-16T15:43:11.004Z,41.63
2022-12-16T15:45:56.570Z,42.10
2022-12-16T15:48:43.726Z,41.17
2022-12-16T15:51:41.304Z,41.43
2022-12-16T15:54:51.204Z,41.40
2022-12-16T15:57:50.294Z,41.67
2022-12-16T16:00:38.842Z,41.53
2022-12-16T16:03:34.055Z,40.63
2022-12-16T16:06:19.536Z,39.93
2022-12-16T16:09:08.637Z,40.83
2022-12-16T16:11:53.932Z,38.07
2022-12-16T16:14:39.266Z,42.70
2022-12-16T16:17:33.347Z,39.97
2022-12-16T16:20:18.859Z,40.27
2022-12-16T16:23:04.215Z,38.90
2022-12-16T16:25:49.685Z,39.43
2022-12-16T16:28:34.948Z,38.40
2022-12-16T16:31:20.383Z,39.10
2022-12-16T16:34:05.643Z,39.13
2022-12-16T16:36:50.922Z,36.70
2022-12-16T16:39:36.372Z,36.10
2022-12-16T16:42:21.678Z,37.90
2022-12-16T16:45:07.008Z,36.03
2022-12-16T16:47:52.383Z,37.87
2022-12-16T16:50:37.925Z,38.27
2022-12-16T16:53:23.419Z,37.60
2022-12-16T16:56:18.143Z,35.70
2022-12-16T16:59:05.216Z,35.93
2022-12-16T17:01:50.756Z,34.80
2022-12-16T17:04:36.383Z,36.40
2022-12-16T17:07:21.599Z,35.67
2022-12-16T17:10:06.990Z,37.43
2022-12-16T17:12:52.403Z,35.97
2022-12-16T17:15:40.292Z,33.70
2022-12-16T17:18:25.844Z,33.00
2022-12-16T17:21:11.410Z,32.93
2022-12-16T17:23:56.846Z,32.27
2022-12-16T17:26:43.308Z,32.17
2022-12-16T17:29:35.907Z,32.20
2022-12-16T17:32:22.625Z,32.40
2022-12-16T17:35:08.007Z,31.43
2022-12-16T17:37:53.198Z,33.03
2022-12-16T17:40:38.703Z,30.57
2022-12-16T17:43:24.033Z,34.23
2022-12-16T17:46:15.674Z,34.60
2022-12-16T17:49:01.034Z,35.87
2022-12-16T17:51:46.537Z,34.93
2022-12-16T17:54:31.807Z,35.43
2022-12-16T17:57:17.242Z,35.07
2022-12-16T18:00:02.725Z,35.17
2022-12-16T18:02:57.993Z,32.70
2022-12-16T18:05:44.797Z,33.83
2022-12-16T18:08:30.586Z,33.87
2022-12-16T18:11:16.667Z,33.23
2022-12-16T18:14:02.028Z,32.13
2022-12-16T18:16:47.390Z,33.43
2022-12-16T18:19:33.709Z,32.23
2022-12-16T18:22:19.052Z,32.53
2022-12-16T18:25:04.422Z,30.57
2022-12-16T18:27:49.870Z,30.47
2022-12-16T18:30:35.325Z,32.00
2022-12-16T18:33:20.633Z,31.87
2022-12-16T18:36:06.055Z,32.17
2022-12-16T18:38:51.457Z,31.80
2022-12-16T18:41:38.792Z,30.80
2022-12-16T18:44:24.871Z,31.37
2022-12-16T18:47:10.364Z,31.77
2022-12-16T18:49:55.718Z,31.27
2022-12-16T18:52:41.203Z,31.87
2022-12-16T18:55:26.666Z,31.30
2022-12-16T18:58:42.157Z,30.63
2022-12-16T19:01:21.661Z,32.17
2022-12-16T19:04:07.273Z,30.77
2022-12-16T19:06:52.593Z,31.50
2022-12-16T19:09:38.164Z,33.83
2022-12-16T19:12:23.271Z,33.57
2022-12-16T19:15:08.710Z,33.47
2022-12-16T19:17:54.281Z,33.43
2022-12-16T19:20:40.244Z,30.90
2022-12-16T19:23:25.971Z,29.37
2022-12-16T19:26:17.767Z,30.73
2022-12-16T19:29:02.951Z,30.87
2022-12-16T19:31:48.758Z,32.13
2022-12-16T19:34:34.331Z,31.70
2022-12-16T19:37:19.617Z,31.03
2022-12-16T19:40:05.014Z,31.20
2022-12-16T19:42:50.274Z,31.73
2022-12-16T19:45:35.783Z,29.60
2022-12-16T19:48:21.142Z,30.20
2022-12-16T19:51:06.573Z,31.93
2022-12-16T19:53:51.918Z,30.70
2022-12-16T19:56:37.299Z,32.10
2022-12-16T19:59:22.779Z,31.43
2022-12-16T20:02:08.302Z,31.60
2022-12-16T20:04:56.143Z,33.57
2022-12-16T20:07:41.843Z,32.73
2022-12-16T20:10:27.207Z,31.53
2022-12-16T20:13:16.957Z,33.07
2022-12-16T20:16:06.419Z,32.23
2022-12-16T20:18:51.959Z,31.50
2022-12-16T20:21:37.142Z,31.03
2022-12-16T20:24:40.369Z,31.47
2022-12-16T20:27:26.094Z,29.33
2022-12-16T20:30:11.097Z,30.67
2022-12-16T20:32:56.689Z,33.10
2022-12-16T20:35:41.954Z,33.73
2022-12-16T20:38:27.438Z,31.60
2022-12-16T20:41:19.970Z,31.30
2022-12-16T20:44:05.952Z,32.27
2022-12-16T20:46:51.813Z,32.07
2022-12-16T20:49:37.387Z,33.40
2022-12-16T20:52:23.063Z,31.80
2022-12-16T20:55:08.469Z,32.77
2022-12-16T20:57:54.611Z,31.67
2022-12-16T21:00:41.365Z,34.03
2022-12-16T21:03:27.555Z,32.87
2022-12-16T21:06:13.071Z,36.07
2022-12-16T21:08:58.489Z,35.27
2022-12-16T21:11:43.725Z,34.93
2022-12-16T21:14:28.911Z,34.43
2022-12-16T21:17:14.443Z,34.60
2022-12-16T21:19:59.912Z,34.37
2022-12-16T21:22:45.406Z,34.47
2022-12-16T21:25:30.890Z,33.13
2022-12-16T21:28:16.815Z,36.07
2022-12-16T21:31:02.251Z,33.53
2022-12-16T21:33:48.051Z,33.83
2022-12-16T21:36:34.091Z,32.83
2022-12-16T21:39:19.484Z,32.23
2022-12-16T21:42:04.829Z,32.33
2022-12-16T21:44:50.217Z,32.83
2022-12-16T21:47:35.648Z,33.50
2022-12-16T21:50:21.037Z,33.07
2022-12-16T21:53:20.733Z,34.20
2022-12-16T21:56:12.775Z,32.57
2022-12-16T21:58:58.024Z,32.70
2022-12-16T22:01:43.510Z,32.10
2022-12-16T22:04:28.606Z,33.53
2022-12-16T22:07:14.044Z,34.37
2022-12-16T22:09:59.542Z,31.90
2022-12-16T22:12:45.115Z,34.93
2022-12-16T22:15:30.653Z,35.53
2022-12-16T22:18:16.040Z,34.90
2022-12-16T22:21:14.168Z,34.47
2022-12-16T22:23:59.496Z,33.77
2022-12-16T22:26:45.021Z,33.93
2022-12-16T22:29:30.549Z,33.83
2022-12-16T22:32:16.116Z,32.70
2022-12-16T22:35:01.671Z,33.70
2022-12-16T22:37:46.976Z,33.63
2022-12-16T22:40:32.327Z,31.37
2022-12-16T22:43:17.408Z,32.80
2022-12-16T22:46:02.925Z,31.73
2022-12-16T22:48:48.429Z,33.43
2022-12-16T22:51:34.299Z,32.17
2022-12-16T22:54:19.687Z,31.77
2022-12-16T22:57:04.935Z,31.47
2022-12-16T22:59:50.458Z,31.70
2022-12-16T23:02:35.826Z,32.80
2022-12-16T23:05:27.305Z,32.33
2022-12-16T23:08:13.224Z,32.83
2022-12-16T23:10:58.669Z,34.17
2022-12-16T23:13:46.401Z,33.83
2022-12-16T23:16:31.900Z,33.63
2022-12-16T23:19:17.332Z,33.17
2022-12-16T23:22:02.678Z,32.93
2022-12-16T23:24:48.039Z,35.17
2022-12-16T23:27:33.331Z,33.57
2022-12-16T23:30:18.893Z,32.60
2022-12-16T23:33:04.354Z,34.20
2022-12-16T23:35:49.710Z,33.83
2022-12-16T23:38:35.044Z,34.63
2022-12-16T23:41:20.530Z,30.37
2022-12-16T23:44:05.607Z,32.77
2022-12-16T23:46:50.846Z,29.63
2022-12-16T23:49:38.768Z,34.33
2022-12-16T23:52:24.292Z,33.27
2022-12-16T23:55:09.683Z,33.20
2022-12-16T23:57:56.186Z,33.73
